sensor_id;sensor_type;location;lat;lon;timestamp;temperature;humidity
3528;DHT22;1778;47.966;7.854;2022-08-01T00:00:10;19.90;99.90
3528;DHT22;1778;47.966;7.854;2022-08-01T00:01:12;19.90;99.90
3528;DHT22;1778;47.966;7.854;2022-08-01T00:02:14;19.90;99.90
3528;DHT22;1778;47.966;7.854;2022-08-01T00:03:16;19.90;99.90
3528;DHT22;1778;47.966;7.854;2022-08-01T00:04:17;19.90;99.90
3528;DHT22;1778;47.966;7.854;2022-08-01T00:05:19;19.90;99.90
3528;DHT22;1778;47.966;7.854;2022-08-01T00:06:21;19.90;99.90
3528;DHT22;1778;47.966;7.854;2022-08-01T00:07:22;19.90;99.90
3528;DHT22;1778;47.966;7.854;2022-08-01T00:08:24;19.80;99.90
3528;DHT22;1778;47.966;7.854;2022-08-01T00:09:26;19.80;99.90
3528;DHT22;1778;47.966;7.854;2022-08-01T00:10:27;19.80;99.90
3528;DHT22;1778;47.966;7.854;2022-08-01T00:11:29;19.80;99.90
3528;DHT22;1778;47.966;7.854;2022-08-01T00:12:31;19.80;99.90
3528;DHT22;1778;47.966;7.854;2022-08-01T00:13:32;19.80;99.90
3528;DHT22;1778;47.966;7.854;2022-08-01T00:14:34;19.80;99.90
3528;DHT22;1778;47.966;7.854;2022-08-01T00:15:35;19.80;99.90
3528;DHT22;1778;47.966;7.854;2022-08-01T00:16:37;19.80;99.90
3528;DHT22;1778;47.966;7.854;2022-08-01T00:17:39;19.80;99.90
3528;DHT22;1778;47.966;7.854;2022-08-01T00:18:41;19.70;99.90
3528;DHT22;1778;47.966;7.854;2022-08-01T00:19:43;19.60;99.90
3528;DHT22;1778;47.966;7.854;2022-08-01T00:20:44;19.70;99.90
3528;DHT22;1778;47.966;7.854;2022-08-01T00:21:46;19.70;99.90
3528;DHT22;1778;47.966;7.854;2022-08-01T00:22:52;19.70;99.90
3528;DHT22;1778;47.966;7.854;2022-08-01T00:23:54;19.60;99.90
3528;DHT22;1778;47.966;7.854;2022-08-01T00:24:55;19.60;99.90
3528;DHT22;1778;47.966;7.854;2022-08-01T00:25:57;19.60;99.90
3528;DHT22;1778;47.966;7.854;2022-08-01T00:26:59;19.60;99.90
3528;DHT22;1778;47.966;7.854;2022-08-01T00:28:01;19.60;99.90
3528;DHT22;1778;47.966;7.854;2022-08-01T00:29:04;19.50;99.90
3528;DHT22;1778;47.966;7.854;2022-08-01T00:30:26;19.50;99.90
3528;DHT22;1778;47.966;7.854;2022-08-01T00:31:28;19.50;99.90
3528;DHT22;1778;47.966;7.854;2022-08-01T00:32:31;19.40;99.90
3528;DHT22;1778;47.966;7.854;2022-08-01T00:33:33;19.50;99.90
3528;DHT22;1778;47.966;7.854;2022-08-01T00:34:34;19.40;99.90
3528;DHT22;1778;47.966;7.854;2022-08-01T00:35:36;19.40;99.90
3528;DHT22;1778;47.966;7.854;2022-08-01T00:36:37;19.40;99.90
3528;DHT22;1778;47.966;7.854;2022-08-01T00:37:39;19.30;99.90
3528;DHT22;1778;47.966;7.854;2022-08-01T00:38:41;19.40;99.90
3528;DHT22;1778;47.966;7.854;2022-08-01T00:39:42;19.40;99.90
3528;DHT22;1778;47.966;7.854;2022-08-01T00:40:44;19.40;99.90
3528;DHT22;1778;47.966;7.854;2022-08-01T00:41:45;19.30;99.90
3528;DHT22;1778;47.966;7.854;2022-08-01T00:42:47;19.30;99.90
3528;DHT22;1778;47.966;7.854;2022-08-01T00:43:48;19.30;99.90
3528;DHT22;1778;47.966;7.854;2022-08-01T00:44:50;19.30;99.90
3528;DHT22;1778;47.966;7.854;2022-08-01T00:45:51;19.30;99.90
3528;DHT22;1778;47.966;7.854;2022-08-01T00:46:53;19.30;99.90
3528;DHT22;1778;47.966;7.854;2022-08-01T00:47:54;19.30;99.90
3528;DHT22;1778;47.966;7.854;2022-08-01T00:48:57;19.30;99.90
3528;DHT22;1778;47.966;7.854;2022-08-01T00:49:58;19.30;99.90
3528;DHT22;1778;47.966;7.854;2022-08-01T00:51:00;19.40;99.90
3528;DHT22;1778;47.966;7.854;2022-08-01T00:52:03;19.40;99.90
3528;DHT22;1778;47.966;7.854;2022-08-01T00:53:07;19.40;99.90
3528;DHT22;1778;47.966;7.854;2022-08-01T00:54:08;19.40;99.90
3528;DHT22;1778;47.966;7.854;2022-08-01T00:55:13;19.30;99.90
3528;DHT22;1778;47.966;7.854;2022-08-01T00:56:15;19.30;99.90
3528;DHT22;1778;47.966;7.854;2022-08-01T00:57:18;19.30;99.90
3528;DHT22;1778;47.966;7.854;2022-08-01T00:58:39;19.30;99.90
3528;DHT22;1778;47.966;7.854;2022-08-01T00:59:41;19.30;99.90
3528;DHT22;1778;47.966;7.854;2022-08-01T01:00:44;19.30;99.90
3528;DHT22;1778;47.966;7.854;2022-08-01T01:01:54;19.30;99.90
3528;DHT22;1778;47.966;7.854;2022-08-01T01:02:56;19.30;99.90
3528;DHT22;1778;47.966;7.854;2022-08-01T01:03:58;19.20;99.90
3528;DHT22;1778;47.966;7.854;2022-08-01T01:05:00;19.30;99.90
3528;DHT22;1778;47.966;7.854;2022-08-01T01:08:43;19.20;99.90
3528;DHT22;1778;47.966;7.854;2022-08-01T01:10:16;19.20;99.90
3528;DHT22;1778;47.966;7.854;2022-08-01T01:11:32;19.30;99.90
3528;DHT22;1778;47.966;7.854;2022-08-01T01:12:50;19.20;99.90
3528;DHT22;1778;47.966;7.854;2022-08-01T01:13:59;19.10;99.90
3528;DHT22;1778;47.966;7.854;2022-08-01T01:16:15;19.10;99.90
3528;DHT22;1778;47.966;7.854;2022-08-01T01:17:23;19.10;99.90
3528;DHT22;1778;47.966;7.854;2022-08-01T01:18:54;19.10;99.90
3528;DHT22;1778;47.966;7.854;2022-08-01T01:19:59;19.10;99.90
3528;DHT22;1778;47.966;7.854;2022-08-01T01:22:24;19.00;99.90
3528;DHT22;1778;47.966;7.854;2022-08-01T01:25:10;19.00;99.90
3528;DHT22;1778;47.966;7.854;2022-08-01T01:27:39;18.90;99.90
3528;DHT22;1778;47.966;7.854;2022-08-01T01:29:17;18.90;99.90
3528;DHT22;1778;47.966;7.854;2022-08-01T01:30:24;18.80;99.90
3528;DHT22;1778;47.966;7.854;2022-08-01T01:31:27;18.80;99.90
3528;DHT22;1778;47.966;7.854;2022-08-01T01:32:39;18.80;99.90
3528;DHT22;1778;47.966;7.854;2022-08-01T01:33:43;18.80;99.90
3528;DHT22;1778;47.966;7.854;2022-08-01T01:34:49;18.80;99.90
3528;DHT22;1778;47.966;7.854;2022-08-01T01:35:57;18.80;99.90
3528;DHT22;1778;47.966;7.854;2022-08-01T01:37:02;18.80;99.90
3528;DHT22;1778;47.966;7.854;2022-08-01T01:38:25;18.80;99.90
3528;DHT22;1778;47.966;7.854;2022-08-01T01:39:29;18.80;99.90
3528;DHT22;1778;47.966;7.854;2022-08-01T01:40:33;18.80;99.90
3528;DHT22;1778;47.966;7.854;2022-08-01T01:41:36;18.80;99.90
3528;DHT22;1778;47.966;7.854;2022-08-01T01:42:39;18.80;99.90
3528;DHT22;1778;47.966;7.854;2022-08-01T01:43:43;18.70;99.90
3528;DHT22;1778;47.966;7.854;2022-08-01T01:44:47;18.70;99.90
3528;DHT22;1778;47.966;7.854;2022-08-01T01:45:50;18.70;99.90
3528;DHT22;1778;47.966;7.854;2022-08-01T01:46:53;18.70;99.90
3528;DHT22;1778;47.966;7.854;2022-08-01T01:47:59;18.70;99.90
3528;DHT22;1778;47.966;7.854;2022-08-01T01:49:02;18.70;99.90
3528;DHT22;1778;47.966;7.854;2022-08-01T01:50:07;18.70;99.90
3528;DHT22;1778;47.966;7.854;2022-08-01T01:51:10;18.70;99.90
3528;DHT22;1778;47.966;7.854;2022-08-01T01:52:16;18.70;99.90
3528;DHT22;1778;47.966;7.854;2022-08-01T01:53:21;18.70;99.90
3528;DHT22;1778;47.966;7.854;2022-08-01T01:54:25;18.70;99.90
3528;DHT22;1778;47.966;7.854;2022-08-01T01:55:30;18.70;99.90
3528;DHT22;1778;47.966;7.854;2022-08-01T01:56:32;18.70;99.90
3528;DHT22;1778;47.966;7.854;2022-08-01T01:57:41;18.70;99.90
3528;DHT22;1778;47.966;7.854;2022-08-01T01:58:44;18.70;99.90
3528;DHT22;1778;47.966;7.854;2022-08-01T01:59:50;18.70;99.90
3528;DHT22;1778;47.966;7.854;2022-08-01T02:00:56;18.70;99.90
3528;DHT22;1778;47.966;7.854;2022-08-01T02:02:02;18.60;99.90
3528;DHT22;1778;47.966;7.854;2022-08-01T02:03:08;18.60;99.90
3528;DHT22;1778;47.966;7.854;2022-08-01T02:04:11;18.60;99.90
3528;DHT22;1778;47.966;7.854;2022-08-01T02:05:14;18.60;99.90
3528;DHT22;1778;47.966;7.854;2022-08-01T02:06:16;18.60;99.90
3528;DHT22;1778;47.966;7.854;2022-08-01T02:07:22;18.50;99.90
3528;DHT22;1778;47.966;7.854;2022-08-01T02:08:25;18.60;99.90
3528;DHT22;1778;47.966;7.854;2022-08-01T02:09:31;18.50;99.90
3528;DHT22;1778;47.966;7.854;2022-08-01T02:10:36;18.60;99.90
3528;DHT22;1778;47.966;7.854;2022-08-01T02:11:39;18.60;99.90
3528;DHT22;1778;47.966;7.854;2022-08-01T02:13:03;18.60;99.90
3528;DHT22;1778;47.966;7.854;2022-08-01T02:14:07;18.60;99.90
3528;DHT22;1778;47.966;7.854;2022-08-01T02:15:12;18.50;99.90
3528;DHT22;1778;47.966;7.854;2022-08-01T02:16:16;18.50;99.90
3528;DHT22;1778;47.966;7.854;2022-08-01T02:17:19;18.50;99.90
3528;DHT22;1778;47.966;7.854;2022-08-01T02:18:22;18.50;99.90
3528;DHT22;1778;47.966;7.854;2022-08-01T02:19:24;18.50;99.90
3528;DHT22;1778;47.966;7.854;2022-08-01T02:20:28;18.50;99.90
3528;DHT22;1778;47.966;7.854;2022-08-01T02:21:35;18.50;99.90
3528;DHT22;1778;47.966;7.854;2022-08-01T02:23:01;18.60;99.90
3528;DHT22;1778;47.966;7.854;2022-08-01T02:24:13;18.50;99.90
3528;DHT22;1778;47.966;7.854;2022-08-01T02:27:07;18.50;99.90
3528;DHT22;1778;47.966;7.854;2022-08-01T02:28:25;18.50;99.90
3528;DHT22;1778;47.966;7.854;2022-08-01T02:29:59;18.50;99.90
3528;DHT22;1778;47.966;7.854;2022-08-01T02:31:07;18.50;99.90
3528;DHT22;1778;47.966;7.854;2022-08-01T02:32:15;18.50;99.90
3528;DHT22;1778;47.966;7.854;2022-08-01T02:33:24;18.40;99.90
3528;DHT22;1778;47.966;7.854;2022-08-01T02:34:29;18.40;99.90
3528;DHT22;1778;47.966;7.854;2022-08-01T02:35:35;18.40;99.90
3528;DHT22;1778;47.966;7.854;2022-08-01T02:37:00;18.40;99.90
3528;DHT22;1778;47.966;7.854;2022-08-01T02:38:05;18.40;99.90
3528;DHT22;1778;47.966;7.854;2022-08-01T02:39:13;18.40;99.90
3528;DHT22;1778;47.966;7.854;2022-08-01T02:40:16;18.30;99.90
3528;DHT22;1778;47.966;7.854;2022-08-01T02:41:20;18.40;99.90
3528;DHT22;1778;47.966;7.854;2022-08-01T02:42:27;18.30;99.90
3528;DHT22;1778;47.966;7.854;2022-08-01T02:43:30;18.30;99.90
3528;DHT22;1778;47.966;7.854;2022-08-01T02:44:37;18.30;99.90
3528;DHT22;1778;47.966;7.854;2022-08-01T02:45:43;18.30;99.90
3528;DHT22;1778;47.966;7.854;2022-08-01T02:46:52;18.30;99.90
3528;DHT22;1778;47.966;7.854;2022-08-01T02:47:59;18.30;99.90
3528;DHT22;1778;47.966;7.854;2022-08-01T02:49:04;18.30;99.90
3528;DHT22;1778;47.966;7.854;2022-08-01T02:50:09;18.30;99.90
3528;DHT22;1778;47.966;7.854;2022-08-01T02:51:13;18.30;99.90
3528;DHT22;1778;47.966;7.854;2022-08-01T02:52:16;18.30;99.90
3528;DHT22;1778;47.966;7.854;2022-08-01T02:53:21;18.30;99.90
3528;DHT22;1778;47.966;7.854;2022-08-01T02:54:48;18.30;99.90
3528;DHT22;1778;47.966;7.854;2022-08-01T02:55:51;18.30;99.90
3528;DHT22;1778;47.966;7.854;2022-08-01T02:56:55;18.20;99.90
3528;DHT22;1778;47.966;7.854;2022-08-01T02:58:00;18.30;99.90
3528;DHT22;1778;47.966;7.854;2022-08-01T02:59:09;18.30;99.90
3528;DHT22;1778;47.966;7.854;2022-08-01T03:00:15;18.30;99.90
3528;DHT22;1778;47.966;7.854;2022-08-01T03:01:18;18.30;99.90
3528;DHT22;1778;47.966;7.854;2022-08-01T03:02:22;18.20;99.90
3528;DHT22;1778;47.966;7.854;2022-08-01T03:03:25;18.20;99.90
3528;DHT22;1778;47.966;7.854;2022-08-01T03:04:28;18.30;99.90
3528;DHT22;1778;47.966;7.854;2022-08-01T03:05:31;18.20;99.90
3528;DHT22;1778;47.966;7.854;2022-08-01T03:06:35;18.20;99.90
3528;DHT22;1778;47.966;7.854;2022-08-01T03:07:39;18.20;99.90
3528;DHT22;1778;47.966;7.854;2022-08-01T03:08:43;18.20;99.90
3528;DHT22;1778;47.966;7.854;2022-08-01T03:09:46;18.20;99.90
3528;DHT22;1778;47.966;7.854;2022-08-01T03:10:50;18.20;99.90
3528;DHT22;1778;47.966;7.854;2022-08-01T03:11:52;18.20;99.90
3528;DHT22;1778;47.966;7.854;2022-08-01T03:12:59;18.10;99.90
3528;DHT22;1778;47.966;7.854;2022-08-01T03:14:04;18.10;99.90
3528;DHT22;1778;47.966;7.854;2022-08-01T03:15:08;18.10;99.90
3528;DHT22;1778;47.966;7.854;2022-08-01T03:16:11;18.10;99.90
3528;DHT22;1778;47.966;7.854;2022-08-01T03:17:15;18.10;99.90
3528;DHT22;1778;47.966;7.854;2022-08-01T03:18:18;18.20;99.90
3528;DHT22;1778;47.966;7.854;2022-08-01T03:19:21;18.20;99.90
3528;DHT22;1778;47.966;7.854;2022-08-01T03:20:25;18.20;99.90
3528;DHT22;1778;47.966;7.854;2022-08-01T03:21:29;18.20;99.90
3528;DHT22;1778;47.966;7.854;2022-08-01T03:22:32;18.20;99.90
3528;DHT22;1778;47.966;7.854;2022-08-01T03:23:36;18.20;99.90
3528;DHT22;1778;47.966;7.854;2022-08-01T03:24:42;18.20;99.90
3528;DHT22;1778;47.966;7.854;2022-08-01T03:25:44;18.10;99.90
3528;DHT22;1778;47.966;7.854;2022-08-01T03:26:47;18.10;99.90
3528;DHT22;1778;47.966;7.854;2022-08-01T03:27:56;18.00;99.90
3528;DHT22;1778;47.966;7.854;2022-08-01T03:29:04;18.10;99.90
3528;DHT22;1778;47.966;7.854;2022-08-01T03:30:08;18.10;99.90
3528;DHT22;1778;47.966;7.854;2022-08-01T03:31:12;18.10;99.90
3528;DHT22;1778;47.966;7.854;2022-08-01T03:32:17;18.10;99.90
3528;DHT22;1778;47.966;7.854;2022-08-01T03:33:19;18.10;99.90
3528;DHT22;1778;47.966;7.854;2022-08-01T03:34:21;18.00;99.90
3528;DHT22;1778;47.966;7.854;2022-08-01T03:35:27;18.00;99.90
3528;DHT22;1778;47.966;7.854;2022-08-01T03:36:30;18.00;99.90
3528;DHT22;1778;47.966;7.854;2022-08-01T03:37:38;18.00;99.90
3528;DHT22;1778;47.966;7.854;2022-08-01T03:39:03;18.00;99.90
3528;DHT22;1778;47.966;7.854;2022-08-01T03:40:31;18.00;99.90
3528;DHT22;1778;47.966;7.854;2022-08-01T03:41:40;17.90;99.90
3528;DHT22;1778;47.966;7.854;2022-08-01T03:42:48;17.90;99.90
3528;DHT22;1778;47.966;7.854;2022-08-01T03:44:01;17.90;99.90
3528;DHT22;1778;47.966;7.854;2022-08-01T03:45:13;17.90;99.90
3528;DHT22;1778;47.966;7.854;2022-08-01T03:46:20;17.80;99.90
3528;DHT22;1778;47.966;7.854;2022-08-01T03:47:30;17.90;99.90
3528;DHT22;1778;47.966;7.854;2022-08-01T03:48:34;17.90;99.90
3528;DHT22;1778;47.966;7.854;2022-08-01T03:49:43;17.90;99.90
3528;DHT22;1778;47.966;7.854;2022-08-01T03:50:50;17.90;99.90
3528;DHT22;1778;47.966;7.854;2022-08-01T03:51:52;17.90;99.90
3528;DHT22;1778;47.966;7.854;2022-08-01T03:52:57;17.90;99.90
3528;DHT22;1778;47.966;7.854;2022-08-01T03:54:01;17.90;99.90
3528;DHT22;1778;47.966;7.854;2022-08-01T03:55:05;17.80;99.90
3528;DHT22;1778;47.966;7.854;2022-08-01T03:56:11;17.80;99.90
3528;DHT22;1778;47.966;7.854;2022-08-01T03:57:14;17.90;99.90
3528;DHT22;1778;47.966;7.854;2022-08-01T03:58:39;17.80;99.90
3528;DHT22;1778;47.966;7.854;2022-08-01T03:59:42;17.80;99.90
3528;DHT22;1778;47.966;7.854;2022-08-01T04:00:45;17.80;99.90
3528;DHT22;1778;47.966;7.854;2022-08-01T04:01:48;17.80;99.90
3528;DHT22;1778;47.966;7.854;2022-08-01T04:02:51;17.80;99.90
3528;DHT22;1778;47.966;7.854;2022-08-01T04:03:53;17.80;99.90
3528;DHT22;1778;47.966;7.854;2022-08-01T04:04:55;17.80;99.90
3528;DHT22;1778;47.966;7.854;2022-08-01T04:05:56;17.80;99.90
3528;DHT22;1778;47.966;7.854;2022-08-01T04:06:58;17.90;99.90
3528;DHT22;1778;47.966;7.854;2022-08-01T04:08:05;17.80;99.90
3528;DHT22;1778;47.966;7.854;2022-08-01T04:09:07;17.80;99.90
3528;DHT22;1778;47.966;7.854;2022-08-01T04:10:13;17.90;99.90
3528;DHT22;1778;47.966;7.854;2022-08-01T04:11:15;17.80;99.90
3528;DHT22;1778;47.966;7.854;2022-08-01T04:12:17;17.90;99.90
3528;DHT22;1778;47.966;7.854;2022-08-01T04:13:19;17.80;99.90
3528;DHT22;1778;47.966;7.854;2022-08-01T04:14:21;17.80;99.90
3528;DHT22;1778;47.966;7.854;2022-08-01T04:15:23;17.80;99.90
3528;DHT22;1778;47.966;7.854;2022-08-01T04:16:25;17.80;99.90
3528;DHT22;1778;47.966;7.854;2022-08-01T04:17:27;17.90;99.90
3528;DHT22;1778;47.966;7.854;2022-08-01T04:18:29;17.90;99.90
3528;DHT22;1778;47.966;7.854;2022-08-01T04:19:30;17.80;99.90
3528;DHT22;1778;47.966;7.854;2022-08-01T04:20:35;17.80;99.90
3528;DHT22;1778;47.966;7.854;2022-08-01T04:21:37;17.80;99.90
3528;DHT22;1778;47.966;7.854;2022-08-01T04:22:39;17.90;99.90
3528;DHT22;1778;47.966;7.854;2022-08-01T04:23:42;17.90;99.90
3528;DHT22;1778;47.966;7.854;2022-08-01T04:24:47;17.90;99.90
3528;DHT22;1778;47.966;7.854;2022-08-01T04:25:57;17.90;99.90
3528;DHT22;1778;47.966;7.854;2022-08-01T04:27:01;17.90;99.90
3528;DHT22;1778;47.966;7.854;2022-08-01T04:28:04;17.90;99.90
3528;DHT22;1778;47.966;7.854;2022-08-01T04:29:09;17.90;99.90
3528;DHT22;1778;47.966;7.854;2022-08-01T04:30:12;17.90;99.90
3528;DHT22;1778;47.966;7.854;2022-08-01T04:31:22;17.90;99.90
3528;DHT22;1778;47.966;7.854;2022-08-01T04:32:30;17.90;99.90
3528;DHT22;1778;47.966;7.854;2022-08-01T04:33:33;18.00;99.90
3528;DHT22;1778;47.966;7.854;2022-08-01T04:34:39;18.00;99.90
3528;DHT22;1778;47.966;7.854;2022-08-01T04:35:46;18.00;99.90
3528;DHT22;1778;47.966;7.854;2022-08-01T04:37:05;18.10;99.90
3528;DHT22;1778;47.966;7.854;2022-08-01T04:38:09;18.10;99.90
3528;DHT22;1778;47.966;7.854;2022-08-01T04:39:12;18.10;99.90
3528;DHT22;1778;47.966;7.854;2022-08-01T04:40:14;18.10;99.90
3528;DHT22;1778;47.966;7.854;2022-08-01T04:41:17;18.10;99.90
3528;DHT22;1778;47.966;7.854;2022-08-01T04:42:19;18.00;99.90
3528;DHT22;1778;47.966;7.854;2022-08-01T04:43:29;18.10;99.90
3528;DHT22;1778;47.966;7.854;2022-08-01T04:44:32;18.00;99.90
3528;DHT22;1778;47.966;7.854;2022-08-01T04:45:35;17.90;99.90
3528;DHT22;1778;47.966;7.854;2022-08-01T04:46:37;18.00;99.90
3528;DHT22;1778;47.966;7.854;2022-08-01T04:47:39;18.00;99.90
3528;DHT22;1778;47.966;7.854;2022-08-01T04:48:42;18.00;99.90
3528;DHT22;1778;47.966;7.854;2022-08-01T04:49:44;18.00;99.90
3528;DHT22;1778;47.966;7.854;2022-08-01T04:50:49;17.90;99.90
3528;DHT22;1778;47.966;7.854;2022-08-01T04:51:54;17.90;99.90
3528;DHT22;1778;47.966;7.854;2022-08-01T04:52:59;18.00;99.90
3528;DHT22;1778;47.966;7.854;2022-08-01T04:54:00;18.00;99.90
3528;DHT22;1778;47.966;7.854;2022-08-01T04:55:03;18.10;99.90
3528;DHT22;1778;47.966;7.854;2022-08-01T04:56:05;18.10;99.90
3528;DHT22;1778;47.966;7.854;2022-08-01T04:57:07;18.20;99.90
3528;DHT22;1778;47.966;7.854;2022-08-01T04:58:12;18.20;99.90
3528;DHT22;1778;47.966;7.854;2022-08-01T04:59:19;18.20;99.90
3528;DHT22;1778;47.966;7.854;2022-08-01T05:00:39;18.10;99.90
3528;DHT22;1778;47.966;7.854;2022-08-01T05:01:40;18.10;99.90
3528;DHT22;1778;47.966;7.854;2022-08-01T05:02:43;18.10;99.90
3528;DHT22;1778;47.966;7.854;2022-08-01T05:03:44;18.10;99.90
3528;DHT22;1778;47.966;7.854;2022-08-01T05:04:46;18.10;99.90
3528;DHT22;1778;47.966;7.854;2022-08-01T05:05:48;18.10;99.90
3528;DHT22;1778;47.966;7.854;2022-08-01T05:06:49;18.10;99.90
3528;DHT22;1778;47.966;7.854;2022-08-01T05:07:51;18.20;99.90
3528;DHT22;1778;47.966;7.854;2022-08-01T05:08:52;18.20;99.90
3528;DHT22;1778;47.966;7.854;2022-08-01T05:09:54;18.20;99.90
3528;DHT22;1778;47.966;7.854;2022-08-01T05:10:56;18.20;99.90
3528;DHT22;1778;47.966;7.854;2022-08-01T05:11:59;18.20;99.90
3528;DHT22;1778;47.966;7.854;2022-08-01T05:13:01;18.20;99.90
3528;DHT22;1778;47.966;7.854;2022-08-01T05:14:02;18.20;99.90
3528;DHT22;1778;47.966;7.854;2022-08-01T05:15:04;18.20;99.90
3528;DHT22;1778;47.966;7.854;2022-08-01T05:16:15;18.20;99.90
3528;DHT22;1778;47.966;7.854;2022-08-01T05:17:18;18.20;99.90
3528;DHT22;1778;47.966;7.854;2022-08-01T05:18:19;18.20;99.90
3528;DHT22;1778;47.966;7.854;2022-08-01T05:19:33;18.30;99.90
3528;DHT22;1778;47.966;7.854;2022-08-01T05:20:34;18.30;99.90
3528;DHT22;1778;47.966;7.854;2022-08-01T05:21:36;18.40;99.90
3528;DHT22;1778;47.966;7.854;2022-08-01T05:22:39;18.40;99.90
3528;DHT22;1778;47.966;7.854;2022-08-01T05:23:41;18.30;99.90
3528;DHT22;1778;47.966;7.854;2022-08-01T05:24:44;18.30;99.90
3528;DHT22;1778;47.966;7.854;2022-08-01T05:25:45;18.30;99.90
3528;DHT22;1778;47.966;7.854;2022-08-01T05:26:58;18.40;99.90
3528;DHT22;1778;47.966;7.854;2022-08-01T05:28:00;18.40;99.90
3528;DHT22;1778;47.966;7.854;2022-08-01T05:29:04;18.40;99.90
3528;DHT22;1778;47.966;7.854;2022-08-01T05:30:09;18.40;99.90
3528;DHT22;1778;47.966;7.854;2022-08-01T05:31:11;18.50;99.90
3528;DHT22;1778;47.966;7.854;2022-08-01T05:32:12;18.60;99.90
3528;DHT22;1778;47.966;7.854;2022-08-01T05:33:14;18.60;99.90
3528;DHT22;1778;47.966;7.854;2022-08-01T05:34:16;18.60;99.90
3528;DHT22;1778;47.966;7.854;2022-08-01T05:35:18;18.60;99.90
3528;DHT22;1778;47.966;7.854;2022-08-01T05:36:20;18.60;99.90
3528;DHT22;1778;47.966;7.854;2022-08-01T05:37:21;18.70;99.90
3528;DHT22;1778;47.966;7.854;2022-08-01T05:38:23;18.80;99.90
3528;DHT22;1778;47.966;7.854;2022-08-01T05:39:25;18.80;99.90
3528;DHT22;1778;47.966;7.854;2022-08-01T05:40:27;18.90;99.90
3528;DHT22;1778;47.966;7.854;2022-08-01T05:41:28;18.90;99.90
3528;DHT22;1778;47.966;7.854;2022-08-01T05:42:30;18.90;99.90
3528;DHT22;1778;47.966;7.854;2022-08-01T05:43:32;19.00;99.90
3528;DHT22;1778;47.966;7.854;2022-08-01T05:44:33;19.00;99.90
3528;DHT22;1778;47.966;7.854;2022-08-01T05:45:35;19.00;99.90
3528;DHT22;1778;47.966;7.854;2022-08-01T05:46:38;19.10;99.90
3528;DHT22;1778;47.966;7.854;2022-08-01T05:47:39;19.10;99.90
3528;DHT22;1778;47.966;7.854;2022-08-01T05:48:43;19.20;99.90
3528;DHT22;1778;47.966;7.854;2022-08-01T05:49:45;19.20;99.90
3528;DHT22;1778;47.966;7.854;2022-08-01T05:50:47;19.20;99.90
3528;DHT22;1778;47.966;7.854;2022-08-01T05:51:49;19.30;99.90
3528;DHT22;1778;47.966;7.854;2022-08-01T05:52:50;19.30;99.90
3528;DHT22;1778;47.966;7.854;2022-08-01T05:53:53;19.40;99.90
3528;DHT22;1778;47.966;7.854;2022-08-01T05:54:55;19.40;99.90
3528;DHT22;1778;47.966;7.854;2022-08-01T05:55:57;19.40;99.90
3528;DHT22;1778;47.966;7.854;2022-08-01T05:56:58;19.50;99.90
3528;DHT22;1778;47.966;7.854;2022-08-01T05:58:03;19.60;99.90
3528;DHT22;1778;47.966;7.854;2022-08-01T05:59:04;19.60;99.90
3528;DHT22;1778;47.966;7.854;2022-08-01T06:00:07;19.70;99.90
3528;DHT22;1778;47.966;7.854;2022-08-01T06:01:12;19.70;99.90
3528;DHT22;1778;47.966;7.854;2022-08-01T06:02:13;19.80;99.90
3528;DHT22;1778;47.966;7.854;2022-08-01T06:03:15;19.80;99.90
3528;DHT22;1778;47.966;7.854;2022-08-01T06:04:16;19.90;99.90
3528;DHT22;1778;47.966;7.854;2022-08-01T06:05:18;20.00;99.90
3528;DHT22;1778;47.966;7.854;2022-08-01T06:06:22;20.00;99.90
3528;DHT22;1778;47.966;7.854;2022-08-01T06:07:25;20.10;99.90
3528;DHT22;1778;47.966;7.854;2022-08-01T06:08:27;20.10;99.90
3528;DHT22;1778;47.966;7.854;2022-08-01T06:09:29;20.20;99.90
3528;DHT22;1778;47.966;7.854;2022-08-01T06:10:32;20.10;99.90
3528;DHT22;1778;47.966;7.854;2022-08-01T06:11:33;20.10;99.90
3528;DHT22;1778;47.966;7.854;2022-08-01T06:12:36;20.10;99.90
3528;DHT22;1778;47.966;7.854;2022-08-01T06:13:38;20.10;99.90
3528;DHT22;1778;47.966;7.854;2022-08-01T06:14:49;20.10;99.90
3528;DHT22;1778;47.966;7.854;2022-08-01T06:15:50;20.10;99.90
3528;DHT22;1778;47.966;7.854;2022-08-01T06:16:52;20.10;99.90
3528;DHT22;1778;47.966;7.854;2022-08-01T06:17:54;20.10;99.90
3528;DHT22;1778;47.966;7.854;2022-08-01T06:18:56;20.10;99.90
3528;DHT22;1778;47.966;7.854;2022-08-01T06:19:57;20.10;99.90
3528;DHT22;1778;47.966;7.854;2022-08-01T06:20:59;20.20;99.90
3528;DHT22;1778;47.966;7.854;2022-08-01T06:22:01;20.20;99.90
3528;DHT22;1778;47.966;7.854;2022-08-01T06:23:03;20.30;99.90
3528;DHT22;1778;47.966;7.854;2022-08-01T06:24:25;20.30;99.90
3528;DHT22;1778;47.966;7.854;2022-08-01T06:25:28;20.30;99.90
3528;DHT22;1778;47.966;7.854;2022-08-01T06:26:29;20.30;99.90
3528;DHT22;1778;47.966;7.854;2022-08-01T06:27:35;20.30;99.90
3528;DHT22;1778;47.966;7.854;2022-08-01T06:28:37;20.40;99.90
3528;DHT22;1778;47.966;7.854;2022-08-01T06:29:39;20.40;99.90
3528;DHT22;1778;47.966;7.854;2022-08-01T06:30:51;20.50;99.90
3528;DHT22;1778;47.966;7.854;2022-08-01T06:31:53;20.50;99.90
3528;DHT22;1778;47.966;7.854;2022-08-01T06:32:54;20.60;99.90
3528;DHT22;1778;47.966;7.854;2022-08-01T06:34:01;20.60;99.90
3528;DHT22;1778;47.966;7.854;2022-08-01T06:35:04;20.70;99.90
3528;DHT22;1778;47.966;7.854;2022-08-01T06:36:06;20.80;99.90
3528;DHT22;1778;47.966;7.854;2022-08-01T06:37:07;20.80;99.90
3528;DHT22;1778;47.966;7.854;2022-08-01T06:38:09;20.90;99.90
3528;DHT22;1778;47.966;7.854;2022-08-01T06:39:11;20.90;99.90
3528;DHT22;1778;47.966;7.854;2022-08-01T06:40:13;21.00;99.90
3528;DHT22;1778;47.966;7.854;2022-08-01T06:41:18;21.00;99.90
3528;DHT22;1778;47.966;7.854;2022-08-01T06:42:19;21.10;99.90
3528;DHT22;1778;47.966;7.854;2022-08-01T06:43:21;21.20;99.90
3528;DHT22;1778;47.966;7.854;2022-08-01T06:44:23;21.30;99.90
3528;DHT22;1778;47.966;7.854;2022-08-01T06:45:24;21.30;99.90
3528;DHT22;1778;47.966;7.854;2022-08-01T06:46:27;21.30;99.90
3528;DHT22;1778;47.966;7.854;2022-08-01T06:47:32;21.30;99.90
3528;DHT22;1778;47.966;7.854;2022-08-01T06:48:34;21.30;99.90
3528;DHT22;1778;47.966;7.854;2022-08-01T06:49:40;21.30;99.90
3528;DHT22;1778;47.966;7.854;2022-08-01T06:50:42;21.40;99.90
3528;DHT22;1778;47.966;7.854;2022-08-01T06:51:43;21.40;99.90
3528;DHT22;1778;47.966;7.854;2022-08-01T06:52:45;21.50;99.90
3528;DHT22;1778;47.966;7.854;2022-08-01T06:53:46;21.50;99.90
3528;DHT22;1778;47.966;7.854;2022-08-01T06:54:48;21.50;99.90
3528;DHT22;1778;47.966;7.854;2022-08-01T06:55:50;21.50;99.90
3528;DHT22;1778;47.966;7.854;2022-08-01T06:56:51;21.60;99.90
3528;DHT22;1778;47.966;7.854;2022-08-01T06:57:53;21.60;99.90
3528;DHT22;1778;47.966;7.854;2022-08-01T06:58:55;21.70;99.90
3528;DHT22;1778;47.966;7.854;2022-08-01T07:00:04;21.80;99.90
3528;DHT22;1778;47.966;7.854;2022-08-01T07:01:09;22.00;99.90
3528;DHT22;1778;47.966;7.854;2022-08-01T07:02:11;22.10;99.90
3528;DHT22;1778;47.966;7.854;2022-08-01T07:03:12;22.20;99.90
3528;DHT22;1778;47.966;7.854;2022-08-01T07:04:14;22.20;99.90
3528;DHT22;1778;47.966;7.854;2022-08-01T07:05:16;22.40;99.90
3528;DHT22;1778;47.966;7.854;2022-08-01T07:06:18;22.50;99.90
3528;DHT22;1778;47.966;7.854;2022-08-01T07:07:19;22.50;99.90
3528;DHT22;1778;47.966;7.854;2022-08-01T07:08:21;22.50;99.90
3528;DHT22;1778;47.966;7.854;2022-08-01T07:09:23;22.50;99.90
3528;DHT22;1778;47.966;7.854;2022-08-01T07:10:25;22.60;99.90
3528;DHT22;1778;47.966;7.854;2022-08-01T07:11:26;22.60;99.90